sensor_id;sensor_type;location;lat;lon;timestamp;temperature;humidity
10447;DHT22;5271;44.422;26.092;2023-04-03T00:00:20;10.00;99.90
10447;DHT22;5271;44.422;26.092;2023-04-03T00:02:47;10.00;99.90
10447;DHT22;5271;44.422;26.092;2023-04-03T00:05:15;10.00;99.90
10447;DHT22;5271;44.422;26.092;2023-04-03T00:07:42;10.00;99.90
10447;DHT22;5271;44.422;26.092;2023-04-03T00:10:09;10.00;99.90
10447;DHT22;5271;44.422;26.092;2023-04-03T00:12:36;10.00;99.90
10447;DHT22;5271;44.422;26.092;2023-04-03T00:15:04;10.00;99.90
10447;DHT22;5271;44.422;26.092;2023-04-03T00:17:31;9.90;99.90
10447;DHT22;5271;44.422;26.092;2023-04-03T00:19:57;9.90;99.90
10447;DHT22;5271;44.422;26.092;2023-04-03T00:22:26;9.80;99.90
10447;DHT22;5271;44.422;26.092;2023-04-03T00:24:54;9.90;99.90
10447;DHT22;5271;44.422;26.092;2023-04-03T00:27:21;9.90;99.90
10447;DHT22;5271;44.422;26.092;2023-04-03T00:29:47;9.90;99.90
10447;DHT22;5271;44.422;26.092;2023-04-03T00:32:14;10.00;99.90
10447;DHT22;5271;44.422;26.092;2023-04-03T00:34:41;10.00;99.90
10447;DHT22;5271;44.422;26.092;2023-04-03T00:37:08;10.00;99.90
10447;DHT22;5271;44.422;26.092;2023-04-03T00:39:36;10.10;99.90
10447;DHT22;5271;44.422;26.092;2023-04-03T00:42:03;10.10;99.90
10447;DHT22;5271;44.422;26.092;2023-04-03T00:47:34;10.10;99.90
10447;DHT22;5271;44.422;26.092;2023-04-03T00:50:01;10.20;99.90
10447;DHT22;5271;44.422;26.092;2023-04-03T00:52:29;10.20;99.90
10447;DHT22;5271;44.422;26.092;2023-04-03T00:55:00;10.30;99.90
10447;DHT22;5271;44.422;26.092;2023-04-03T00:57:29;10.40;99.90
10447;DHT22;5271;44.422;26.092;2023-04-03T01:00:00;10.40;99.90
10447;DHT22;5271;44.422;26.092;2023-04-03T01:02:28;10.50;99.90
10447;DHT22;5271;44.422;26.092;2023-04-03T01:04:55;10.40;99.90
10447;DHT22;5271;44.422;26.092;2023-04-03T01:07:23;10.40;99.90
10447;DHT22;5271;44.422;26.092;2023-04-03T01:09:53;10.30;99.90
10447;DHT22;5271;44.422;26.092;2023-04-03T01:12:26;10.30;99.90
10447;DHT22;5271;44.422;26.092;2023-04-03T01:14:55;10.20;99.90
10447;DHT22;5271;44.422;26.092;2023-04-03T01:17:27;10.10;99.90
10447;DHT22;5271;44.422;26.092;2023-04-03T01:22:53;10.00;99.90
10447;DHT22;5271;44.422;26.092;2023-04-03T01:25:23;10.00;99.90
10447;DHT22;5271;44.422;26.092;2023-04-03T01:27:51;10.10;99.90
10447;DHT22;5271;44.422;26.092;2023-04-03T01:30:21;10.10;99.90
10447;DHT22;5271;44.422;26.092;2023-04-03T01:32:51;10.10;99.90
10447;DHT22;5271;44.422;26.092;2023-04-03T01:35:18;10.10;99.90
10447;DHT22;5271;44.422;26.092;2023-04-03T01:37:45;10.00;99.90
10447;DHT22;5271;44.422;26.092;2023-04-03T01:40:12;10.00;99.90
10447;DHT22;5271;44.422;26.092;2023-04-03T01:42:39;10.10;99.90
10447;DHT22;5271;44.422;26.092;2023-04-03T01:45:06;10.20;99.90
10447;DHT22;5271;44.422;26.092;2023-04-03T01:47:33;10.30;99.90
10447;DHT22;5271;44.422;26.092;2023-04-03T01:50:02;10.30;99.90
10447;DHT22;5271;44.422;26.092;2023-04-03T01:52:29;10.30;99.90
10447;DHT22;5271;44.422;26.092;2023-04-03T01:54:55;10.30;99.90
10447;DHT22;5271;44.422;26.092;2023-04-03T01:57:22;10.20;99.90
10447;DHT22;5271;44.422;26.092;2023-04-03T01:59:49;10.10;99.90
10447;DHT22;5271;44.422;26.092;2023-04-03T02:02:16;10.00;99.90
10447;DHT22;5271;44.422;26.092;2023-04-03T02:04:44;10.00;99.90
10447;DHT22;5271;44.422;26.092;2023-04-03T02:07:13;9.90;99.90
10447;DHT22;5271;44.422;26.092;2023-04-03T02:09:39;9.90;99.90
10447;DHT22;5271;44.422;26.092;2023-04-03T02:12:06;9.90;99.90
10447;DHT22;5271;44.422;26.092;2023-04-03T02:14:33;10.00;99.90
10447;DHT22;5271;44.422;26.092;2023-04-03T02:17:00;10.00;99.90
10447;DHT22;5271;44.422;26.092;2023-04-03T02:19:30;10.00;99.90
10447;DHT22;5271;44.422;26.092;2023-04-03T02:21:57;10.10;99.90
10447;DHT22;5271;44.422;26.092;2023-04-03T02:24:25;10.20;99.90
10447;DHT22;5271;44.422;26.092;2023-04-03T02:26:52;10.20;99.90
10447;DHT22;5271;44.422;26.092;2023-04-03T02:29:19;10.30;99.90
10447;DHT22;5271;44.422;26.092;2023-04-03T02:31:46;10.40;99.90
10447;DHT22;5271;44.422;26.092;2023-04-03T02:34:13;10.30;99.90
10447;DHT22;5271;44.422;26.092;2023-04-03T02:36:40;10.40;99.90
10447;DHT22;5271;44.422;26.092;2023-04-03T02:39:06;10.30;99.90
10447;DHT22;5271;44.422;26.092;2023-04-03T02:41:34;10.30;99.90
10447;DHT22;5271;44.422;26.092;2023-04-03T02:44:01;10.20;99.90
10447;DHT22;5271;44.422;26.092;2023-04-03T02:46:28;10.30;99.90
10447;DHT22;5271;44.422;26.092;2023-04-03T02:48:55;10.20;99.90
10447;DHT22;5271;44.422;26.092;2023-04-03T02:51:22;10.10;99.90
10447;DHT22;5271;44.422;26.092;2023-04-03T02:53:49;10.00;99.90
10447;DHT22;5271;44.422;26.092;2023-04-03T02:56:17;10.00;99.90
10447;DHT22;5271;44.422;26.092;2023-04-03T02:58:46;10.00;99.90
10447;DHT22;5271;44.422;26.092;2023-04-03T03:01:13;9.90;99.90
10447;DHT22;5271;44.422;26.092;2023-04-03T03:03:40;9.90;99.90
10447;DHT22;5271;44.422;26.092;2023-04-03T03:06:09;9.80;99.90
10447;DHT22;5271;44.422;26.092;2023-04-03T03:08:37;9.80;99.90
10447;DHT22;5271;44.422;26.092;2023-04-03T03:11:04;9.80;99.90
10447;DHT22;5271;44.422;26.092;2023-04-03T03:13:32;9.90;99.90
10447;DHT22;5271;44.422;26.092;2023-04-03T03:16:00;9.90;99.90
10447;DHT22;5271;44.422;26.092;2023-04-03T03:18:27;10.00;99.90
10447;DHT22;5271;44.422;26.092;2023-04-03T03:20:55;10.10;99.90
10447;DHT22;5271;44.422;26.092;2023-04-03T03:23:23;10.30;99.90
10447;DHT22;5271;44.422;26.092;2023-04-03T03:25:54;10.30;99.90
10447;DHT22;5271;44.422;26.092;2023-04-03T03:28:21;10.30;99.90
10447;DHT22;5271;44.422;26.092;2023-04-03T03:30:48;10.40;99.90
10447;DHT22;5271;44.422;26.092;2023-04-03T03:33:17;10.40;99.90
10447;DHT22;5271;44.422;26.092;2023-04-03T03:35:44;10.40;99.90
10447;DHT22;5271;44.422;26.092;2023-04-03T03:38:11;10.30;99.90
10447;DHT22;5271;44.422;26.092;2023-04-03T03:40:38;10.30;99.90
10447;DHT22;5271;44.422;26.092;2023-04-03T03:43:05;10.30;99.90
10447;DHT22;5271;44.422;26.092;2023-04-03T03:45:32;10.30;99.90
10447;DHT22;5271;44.422;26.092;2023-04-03T03:47:58;10.30;99.90
10447;DHT22;5271;44.422;26.092;2023-04-03T03:50:27;10.30;99.90
10447;DHT22;5271;44.422;26.092;2023-04-03T03:52:54;10.30;99.90
10447;DHT22;5271;44.422;26.092;2023-04-03T03:55:20;10.30;99.90
10447;DHT22;5271;44.422;26.092;2023-04-03T03:57:47;10.30;99.90
10447;DHT22;5271;44.422;26.092;2023-04-03T04:00:15;10.40;99.90
10447;DHT22;5271;44.422;26.092;2023-04-03T04:02:42;10.50;99.90
10447;DHT22;5271;44.422;26.092;2023-04-03T04:05:08;10.50;99.90
10447;DHT22;5271;44.422;26.092;2023-04-03T04:07:37;10.50;99.90
10447;DHT22;5271;44.422;26.092;2023-04-03T04:10:04;10.50;99.90
10447;DHT22;5271;44.422;26.092;2023-04-03T04:12:31;10.50;99.90
10447;DHT22;5271;44.422;26.092;2023-04-03T04:14:58;10.50;99.90
10447;DHT22;5271;44.422;26.092;2023-04-03T04:17:25;10.60;99.90
10447;DHT22;5271;44.422;26.092;2023-04-03T04:19:51;10.60;99.90
10447;DHT22;5271;44.422;26.092;2023-04-03T04:22:18;10.70;99.90
10447;DHT22;5271;44.422;26.092;2023-04-03T04:24:46;10.80;99.90
10447;DHT22;5271;44.422;26.092;2023-04-03T04:27:13;10.70;99.90
10447;DHT22;5271;44.422;26.092;2023-04-03T04:29:41;10.70;99.90
10447;DHT22;5271;44.422;26.092;2023-04-03T04:32:07;10.70;99.90
10447;DHT22;5271;44.422;26.092;2023-04-03T04:34:34;10.70;99.90
10447;DHT22;5271;44.422;26.092;2023-04-03T04:37:01;10.60;99.90
10447;DHT22;5271;44.422;26.092;2023-04-03T04:39:28;10.60;99.90
10447;DHT22;5271;44.422;26.092;2023-04-03T04:41:56;10.60;99.90
10447;DHT22;5271;44.422;26.092;2023-04-03T04:44:23;10.60;99.90
10447;DHT22;5271;44.422;26.092;2023-04-03T04:46:50;10.60;99.90
10447;DHT22;5271;44.422;26.092;2023-04-03T04:49:17;10.60;99.90
10447;DHT22;5271;44.422;26.092;2023-04-03T04:51:44;10.60;99.90
10447;DHT22;5271;44.422;26.092;2023-04-03T04:54:10;10.60;99.90
10447;DHT22;5271;44.422;26.092;2023-04-03T04:56:37;10.50;99.90
10447;DHT22;5271;44.422;26.092;2023-04-03T04:59:05;10.50;99.90
10447;DHT22;5271;44.422;26.092;2023-04-03T05:01:32;10.40;99.90
10447;DHT22;5271;44.422;26.092;2023-04-03T05:03:59;10.30;99.90
10447;DHT22;5271;44.422;26.092;2023-04-03T05:06:26;10.20;99.90
10447;DHT22;5271;44.422;26.092;2023-04-03T05:08:52;10.20;99.90
10447;DHT22;5271;44.422;26.092;2023-04-03T05:11:19;10.20;99.90
10447;DHT22;5271;44.422;26.092;2023-04-03T05:16:15;10.00;99.90
10447;DHT22;5271;44.422;26.092;2023-04-03T05:18:41;10.00;99.90
10447;DHT22;5271;44.422;26.092;2023-04-03T05:21:08;9.90;99.90
10447;DHT22;5271;44.422;26.092;2023-04-03T05:23:35;9.90;99.90
10447;DHT22;5271;44.422;26.092;2023-04-03T05:26:02;9.90;99.90
10447;DHT22;5271;44.422;26.092;2023-04-03T05:28:29;9.80;99.90
10447;DHT22;5271;44.422;26.092;2023-04-03T05:30:56;9.80;99.90
10447;DHT22;5271;44.422;26.092;2023-04-03T05:33:26;9.80;99.90
10447;DHT22;5271;44.422;26.092;2023-04-03T05:35:53;9.80;99.90
10447;DHT22;5271;44.422;26.092;2023-04-03T05:38:19;9.80;99.90
10447;DHT22;5271;44.422;26.092;2023-04-03T05:40:46;9.70;99.90
10447;DHT22;5271;44.422;26.092;2023-04-03T05:43:13;9.80;99.90
10447;DHT22;5271;44.422;26.092;2023-04-03T05:45:40;9.80;99.90
10447;DHT22;5271;44.422;26.092;2023-04-03T05:48:07;9.90;99.90
10447;DHT22;5271;44.422;26.092;2023-04-03T05:50:35;9.90;99.90
10447;DHT22;5271;44.422;26.092;2023-04-03T05:53:09;9.80;99.90
10447;DHT22;5271;44.422;26.092;2023-04-03T05:55:37;9.80;99.90
10447;DHT22;5271;44.422;26.092;2023-04-03T05:58:04;9.80;99.90
10447;DHT22;5271;44.422;26.092;2023-04-03T06:00:31;9.80;99.90
10447;DHT22;5271;44.422;26.092;2023-04-03T06:02:58;9.80;99.90
10447;DHT22;5271;44.422;26.092;2023-04-03T06:05:25;9.70;99.90
10447;DHT22;5271;44.422;26.092;2023-04-03T06:07:53;9.70;99.90
10447;DHT22;5271;44.422;26.092;2023-04-03T06:10:21;9.80;99.90
10447;DHT22;5271;44.422;26.092;2023-04-03T06:12:48;9.80;99.90
10447;DHT22;5271;44.422;26.092;2023-04-03T06:15:15;9.80;99.90
10447;DHT22;5271;44.422;26.092;2023-04-03T06:17:42;9.80;99.90
10447;DHT22;5271;44.422;26.092;2023-04-03T06:20:10;9.80;99.90
10447;DHT22;5271;44.422;26.092;2023-04-03T06:22:37;9.70;99.90
10447;DHT22;5271;44.422;26.092;2023-04-03T06:25:07;9.70;99.90
10447;DHT22;5271;44.422;26.092;2023-04-03T06:27:34;9.60;99.90
10447;DHT22;5271;44.422;26.092;2023-04-03T06:30:01;9.60;99.90
10447;DHT22;5271;44.422;26.092;2023-04-03T06:32:28;9.60;99.90
10447;DHT22;5271;44.422;26.092;2023-04-03T06:34:55;9.60;99.90
10447;DHT22;5271;44.422;26.092;2023-04-03T06:37:23;9.50;99.90
10447;DHT22;5271;44.422;26.092;2023-04-03T06:39:51;9.40;99.90
10447;DHT22;5271;44.422;26.092;2023-04-03T06:42:19;9.50;99.90
10447;DHT22;5271;44.422;26.092;2023-04-03T06:44:46;9.50;99.90
10447;DHT22;5271;44.422;26.092;2023-04-03T06:47:14;9.60;99.90
10447;DHT22;5271;44.422;26.092;2023-04-03T06:49:42;9.50;99.90
10447;DHT22;5271;44.422;26.092;2023-04-03T06:52:09;9.50;99.90
10447;DHT22;5271;44.422;26.092;2023-04-03T06:54:37;9.50;99.90
10447;DHT22;5271;44.422;26.092;2023-04-03T06:57:04;9.60;99.90
10447;DHT22;5271;44.422;26.092;2023-04-03T06:59:33;9.50;99.90
10447;DHT22;5271;44.422;26.092;2023-04-03T07:01:59;9.60;99.90
10447;DHT22;5271;44.422;26.092;2023-04-03T07:04:26;9.60;99.90
10447;DHT22;5271;44.422;26.092;2023-04-03T07:06:53;9.60;99.90
10447;DHT22;5271;44.422;26.092;2023-04-03T07:09:20;9.70;99.90
10447;DHT22;5271;44.422;26.092;2023-04-03T07:11:47;9.80;99.90
10447;DHT22;5271;44.422;26.092;2023-04-03T07:14:14;9.80;99.90
10447;DHT22;5271;44.422;26.092;2023-04-03T07:16:42;9.80;99.90
10447;DHT22;5271;44.422;26.092;2023-04-03T07:19:09;9.80;99.90
10447;DHT22;5271;44.422;26.092;2023-04-03T07:21:36;9.70;99.90
10447;DHT22;5271;44.422;26.092;2023-04-03T07:24:03;9.70;99.90
10447;DHT22;5271;44.422;26.092;2023-04-03T07:26:30;9.70;99.90
10447;DHT22;5271;44.422;26.092;2023-04-03T07:28:57;9.70;99.90
10447;DHT22;5271;44.422;26.092;2023-04-03T07:31:24;9.70;99.90
10447;DHT22;5271;44.422;26.092;2023-04-03T07:33:52;9.70;99.90
10447;DHT22;5271;44.422;26.092;2023-04-03T07:36:21;9.70;99.90
10447;DHT22;5271;44.422;26.092;2023-04-03T07:38:48;9.70;99.90
10447;DHT22;5271;44.422;26.092;2023-04-03T07:41:16;9.70;99.90
10447;DHT22;5271;44.422;26.092;2023-04-03T07:43:44;9.70;99.90
10447;DHT22;5271;44.422;26.092;2023-04-03T07:46:10;9.70;99.90
10447;DHT22;5271;44.422;26.092;2023-04-03T07:48:38;9.60;99.90
10447;DHT22;5271;44.422;26.092;2023-04-03T07:51:06;9.60;99.90
10447;DHT22;5271;44.422;26.092;2023-04-03T07:53:33;9.60;99.90
10447;DHT22;5271;44.422;26.092;2023-04-03T07:56:00;9.50;99.90
10447;DHT22;5271;44.422;26.092;2023-04-03T07:58:28;9.40;99.90
10447;DHT22;5271;44.422;26.092;2023-04-03T08:00:55;9.40;99.90
10447;DHT22;5271;44.422;26.092;2023-04-03T08:03:22;9.30;99.90
10447;DHT22;5271;44.422;26.092;2023-04-03T08:05:49;9.30;99.90
10447;DHT22;5271;44.422;26.092;2023-04-03T08:08:20;9.30;99.90
10447;DHT22;5271;44.422;26.092;2023-04-03T08:10:49;9.40;99.90
10447;DHT22;5271;44.422;26.092;2023-04-03T08:13:16;9.40;99.90
10447;DHT22;5271;44.422;26.092;2023-04-03T08:15:43;9.40;99.90
10447;DHT22;5271;44.422;26.092;2023-04-03T08:18:10;9.50;99.90
10447;DHT22;5271;44.422;26.092;2023-04-03T08:20:38;9.40;99.90
10447;DHT22;5271;44.422;26.092;2023-04-03T08:23:05;9.40;99.90
10447;DHT22;5271;44.422;26.092;2023-04-03T08:25:33;9.40;99.90
10447;DHT22;5271;44.422;26.092;2023-04-03T08:28:00;9.30;99.90
10447;DHT22;5271;44.422;26.092;2023-04-03T08:30:27;9.40;99.90
10447;DHT22;5271;44.422;26.092;2023-04-03T08:32:54;9.40;99.90
10447;DHT22;5271;44.422;26.092;2023-04-03T08:35:21;9.40;99.90
10447;DHT22;5271;44.422;26.092;2023-04-03T08:37:47;9.50;99.90
10447;DHT22;5271;44.422;26.092;2023-04-03T08:40:16;9.50;99.90
10447;DHT22;5271;44.422;26.092;2023-04-03T08:42:51;9.50;99.90
10447;DHT22;5271;44.422;26.092;2023-04-03T08:45:27;9.50;99.90
10447;DHT22;5271;44.422;26.092;2023-04-03T08:48:04;9.40;99.90
10447;DHT22;5271;44.422;26.092;2023-04-03T08:50:37;9.50;99.90
10447;DHT22;5271;44.422;26.092;2023-04-03T08:53:06;9.40;99.90
10447;DHT22;5271;44.422;26.092;2023-04-03T08:55:40;9.40;99.90
10447;DHT22;5271;44.422;26.092;2023-04-03T08:58:12;9.50;99.90
10447;DHT22;5271;44.422;26.092;2023-04-03T09:00:45;9.50;99.90
10447;DHT22;5271;44.422;26.092;2023-04-03T09:03:14;9.50;99.90
10447;DHT22;5271;44.422;26.092;2023-04-03T09:05:45;9.50;99.90
10447;DHT22;5271;44.422;26.092;2023-04-03T09:08:21;9.50;99.90
10447;DHT22;5271;44.422;26.092;2023-04-03T09:10:49;9.50;99.90
10447;DHT22;5271;44.422;26.092;2023-04-03T09:13:25;9.60;99.90
10447;DHT22;5271;44.422;26.092;2023-04-03T09:15:53;9.50;99.90
10447;DHT22;5271;44.422;26.092;2023-04-03T09:18:24;9.50;99.90
10447;DHT22;5271;44.422;26.092;2023-04-03T09:20:57;9.50;99.90
10447;DHT22;5271;44.422;26.092;2023-04-03T09:23:30;9.50;99.90
10447;DHT22;5271;44.422;26.092;2023-04-03T09:26:03;9.60;99.90
10447;DHT22;5271;44.422;26.092;2023-04-03T09:28:35;9.50;99.90
10447;DHT22;5271;44.422;26.092;2023-04-03T09:31:16;9.50;99.90
10447;DHT22;5271;44.422;26.092;2023-04-03T09:33:44;9.40;99.90
10447;DHT22;5271;44.422;26.092;2023-04-03T09:36:12;9.30;99.90
10447;DHT22;5271;44.422;26.092;2023-04-03T09:38:39;9.30;99.90
10447;DHT22;5271;44.422;26.092;2023-04-03T09:41:12;9.30;99.90
10447;DHT22;5271;44.422;26.092;2023-04-03T09:43:51;9.40;99.90
10447;DHT22;5271;44.422;26.092;2023-04-03T09:46:25;9.50;99.90
10447;DHT22;5271;44.422;26.092;2023-04-03T09:48:58;9.50;99.90
10447;DHT22;5271;44.422;26.092;2023-04-03T09:51:26;9.50;99.90
10447;DHT22;5271;44.422;26.092;2023-04-03T09:53:54;9.60;99.90
10447;DHT22;5271;44.422;26.092;2023-04-03T09:56:24;9.60;99.90
10447;DHT22;5271;44.422;26.092;2023-04-03T09:59:08;9.60;99.90
10447;DHT22;5271;44.422;26.092;2023-04-03T10:01:43;9.70;99.90
10447;DHT22;5271;44.422;26.092;2023-04-03T10:04:12;9.60;99.90
10447;DHT22;5271;44.422;26.092;2023-04-03T10:06:41;9.50;99.90
10447;DHT22;5271;44.422;26.092;2023-04-03T10:09:18;9.40;99.90
10447;DHT22;5271;44.422;26.092;2023-04-03T10:12:01;9.40;99.90
10447;DHT22;5271;44.422;26.092;2023-04-03T10:14:32;9.50;99.90
10447;DHT22;5271;44.422;26.092;2023-04-03T10:17:10;9.50;99.90
10447;DHT22;5271;44.422;26.092;2023-04-03T10:19:42;9.60;99.90
10447;DHT22;5271;44.422;26.092;2023-04-03T10:22:19;9.70;99.90
10447;DHT22;5271;44.422;26.092;2023-04-03T10:25:03;9.80;99.90
10447;DHT22;5271;44.422;26.092;2023-04-03T10:27:40;9.80;99.90
10447;DHT22;5271;44.422;26.092;2023-04-03T10:30:21;9.70;99.90
10447;DHT22;5271;44.422;26.092;2023-04-03T10:32:58;9.70;99.90
10447;DHT22;5271;44.422;26.092;2023-04-03T10:35:37;9.70;99.90
10447;DHT22;5271;44.422;26.092;2023-04-03T10:38:12;9.70;99.90
10447;DHT22;5271;44.422;26.092;2023-04-03T10:40:47;9.70;99.90
10447;DHT22;5271;44.422;26.092;2023-04-03T10:43:21;9.70;99.90
10447;DHT22;5271;44.422;26.092;2023-04-03T10:45:56;9.70;99.90
10447;DHT22;5271;44.422;26.092;2023-04-03T10:48:53;9.60;99.90
10447;DHT22;5271;44.422;26.092;2023-04-03T10:51:29;9.60;99.90
10447;DHT22;5271;44.422;26.092;2023-04-03T10:54:01;9.50;99.90
10447;DHT22;5271;44.422;26.092;2023-04-03T10:56:37;9.50;99.90
10447;DHT22;5271;44.422;26.092;2023-04-03T10:59:24;9.50;99.90
10447;DHT22;5271;44.422;26.092;2023-04-03T11:01:56;9.50;99.90
10447;DHT22;5271;44.422;26.092;2023-04-03T11:04:25;9.50;99.90
10447;DHT22;5271;44.422;26.092;2023-04-03T11:06:58;9.60;99.90
10447;DHT22;5271;44.422;26.092;2023-04-03T11:09:28;9.60;99.90
10447;DHT22;5271;44.422;26.092;2023-04-03T11:12:01;9.60;99.90
10447;DHT22;5271;44.422;26.092;2023-04-03T11:14:31;9.60;99.90
10447;DHT22;5271;44.422;26.092;2023-04-03T11:17:08;9.50;99.90
10447;DHT22;5271;44.422;26.092;2023-04-03T11:19:41;9.50;99.90
10447;DHT22;5271;44.422;26.092;2023-04-03T11:22:13;9.50;99.90
10447;DHT22;5271;44.422;26.092;2023-04-03T11:24:43;9.50;99.90
10447;DHT22;5271;44.422;26.092;2023-04-03T11:27:17;9.60;99.90
10447;DHT22;5271;44.422;26.092;2023-04-03T11:29:48;9.70;99.90
10447;DHT22;5271;44.422;26.092;2023-04-03T11:32:29;9.90;99.90
10447;DHT22;5271;44.422;26.092;2023-04-03T11:35:00;10.10;99.90
10447;DHT22;5271;44.422;26.092;2023-04-03T11:37:31;10.30;99.90
10447;DHT22;5271;44.422;26.092;2023-04-03T11:40:02;10.50;99.90
10447;DHT22;5271;44.422;26.092;2023-04-03T11:42:34;10.60;99.90
10447;DHT22;5271;44.422;26.092;2023-04-03T11:45:29;10.70;99.90
10447;DHT22;5271;44.422;26.092;2023-04-03T11:48:00;10.90;99.90
10447;DHT22;5271;44.422;26.092;2023-04-03T11:50:44;10.90;99.90
10447;DHT22;5271;44.422;26.092;2023-04-03T11:53:32;10.90;99.90
10447;DHT22;5271;44.422;26.092;2023-04-03T11:59:16;11.00;99.90
10447;DHT22;5271;44.422;26.092;2023-04-03T12:01:46;11.10;99.90
10447;DHT22;5271;44.422;26.092;2023-04-03T12:04:16;11.10;99.90
10447;DHT22;5271;44.422;26.092;2023-04-03T12:10:01;11.10;99.90
10447;DHT22;5271;44.422;26.092;2023-04-03T12:12:34;11.00;99.90
10447;DHT22;5271;44.422;26.092;2023-04-03T12:18:41;10.90;99.90
10447;DHT22;5271;44.422;26.092;2023-04-03T12:21:10;10.90;99.90
10447;DHT22;5271;44.422;26.092;2023-04-03T12:24:04;10.90;99.90
10447;DHT22;5271;44.422;26.092;2023-04-03T12:26:36;10.90;99.90
10447;DHT22;5271;44.422;26.092;2023-04-03T12:29:14;10.80;99.90
10447;DHT22;5271;44.422;26.092;2023-04-03T12:31:48;10.80;99.90
10447;DHT22;5271;44.422;26.092;2023-04-03T12:34:32;10.80;99.90
10447;DHT22;5271;44.422;26.092;2023-04-03T12:37:06;10.90;99.90
10447;DHT22;5271;44.422;26.092;2023-04-03T12:39:58;10.90;99.90
10447;DHT22;5271;44.422;26.092;2023-04-03T12:42:58;11.00;99.90
10447;DHT22;5271;44.422;26.092;2023-04-03T12:45:40;11.00;99.90
10447;DHT22;5271;44.422;26.092;2023-04-03T12:48:13;10.90;99.90
10447;DHT22;5271;44.422;26.092;2023-04-03T12:50:41;10.90;99.90
10447;DHT22;5271;44.422;26.092;2023-04-03T12:53:16;10.90;99.90
10447;DHT22;5271;44.422;26.092;2023-04-03T12:55:43;10.90;99.90
10447;DHT22;5271;44.422;26.092;2023-04-03T12:58:15;10.90;99.90
10447;DHT22;5271;44.422;26.092;2023-04-03T13:00:42;10.90;99.90
10447;DHT22;5271;44.422;26.092;2023-04-03T13:03:22;11.00;99.90
10447;DHT22;5271;44.422;26.092;2023-04-03T13:05:52;11.00;99.90
10447;DHT22;5271;44.422;26.092;2023-04-03T13:08:21;11.00;99.90
10447;DHT22;5271;44.422;26.092;2023-04-03T13:10:54;11.00;99.90
10447;DHT22;5271;44.422;26.092;2023-04-03T13:13:21;11.00;99.90
10447;DHT22;5271;44.422;26.092;2023-04-03T13:15:49;11.10;99.90
10447;DHT22;5271;44.422;26.092;2023-04-03T13:18:30;11.10;99.90
10447;DHT22;5271;44.422;26.092;2023-04-03T13:21:03;11.20;99.60
10447;DHT22;5271;44.422;26.092;2023-04-03T13:23:33;11.30;99.50
10447;DHT22;5271;44.422;26.092;2023-04-03T13:26:02;11.30;99.60
10447;DHT22;5271;44.422;26.092;2023-04-03T13:28:31;11.30;99.40
10447;DHT22;5271;44.422;26.092;2023-04-03T13:31:04;11.30;99.00
10447;DHT22;5271;44.422;26.092;2023-04-03T13:33:34;11.30;98.70
10447;DHT22;5271;44.422;26.092;2023-04-03T13:36:05;11.30;98.80
10447;DHT22;5271;44.422;26.092;2023-04-03T13:38:34;11.30;98.50
10447;DHT22;5271;44.422;26.092;2023-04-03T13:41:05;11.40;98.90
10447;DHT22;5271;44.422;26.092;2023-04-03T13:43:35;11.40;98.90
10447;DHT22;5271;44.422;26.092;2023-04-03T13:46:20;11.40;99.00
10447;DHT22;5271;44.422;26.092;2023-04-03T13:48:49;11.40;99.00
10447;DHT22;5271;44.422;26.092;2023-04-03T13:51:22;11.40;99.00
10447;DHT22;5271;44.422;26.092;2023-04-03T13:53:53;11.40;99.10
10447;DHT22;5271;44.422;26.092;2023-04-03T13:56:25;11.50;99.10
10447;DHT22;5271;44.422;26.092;2023-04-03T13:59:19;11.40;98.90
10447;DHT22;5271;44.422;26.092;2023-04-03T14:01:50;11.50;99.00
10447;DHT22;5271;44.422;26.092;2023-04-03T14:04:20;11.50;99.10
10447;DHT22;5271;44.422;26.092;2023-04-03T14:06:48;11.50;98.80
10447;DHT22;5271;44.422;26.092;2023-04-03T14:09:17;11.50;98.40
10447;DHT22;5271;44.422;26.092;2023-04-03T14:11:45;11.40;98.70
10447;DHT22;5271;44.422;26.092;2023-04-03T14:14:14;11.50;98.60
10447;DHT22;5271;44.422;26.092;2023-04-03T14:16:43;11.50;98.40
10447;DHT22;5271;44.422;26.092;2023-04-03T14:19:21;11.50;98.70
10447;DHT22;5271;44.422;26.092;2023-04-03T14:21:49;11.50;98.50
10447;DHT22;5271;44.422;26.092;2023-04-03T14:24:17;11.50;98.20
10447;DHT22;5271;44.422;26.092;2023-04-03T14:26:45;11.50;98.30
10447;DHT22;5271;44.422;26.092;2023-04-03T14:29:13;11.40;98.30
10447;DHT22;5271;44.422;26.092;2023-04-03T14:31:41;11.40;98.50
10447;DHT22;5271;44.422;26.092;2023-04-03T14:34:10;11.40;98.40
10447;DHT22;5271;44.422;26.092;2023-04-03T14:36:37;11.40;98.60
10447;DHT22;5271;44.422;26.092;2023-04-03T14:39:06;11.30;98.30
10447;DHT22;5271;44.422;26.092;2023-04-03T14:41:35;11.40;98.60
10447;DHT22;5271;44.422;26.092;2023-04-03T14:44:02;11.40;98.30
10447;DHT22;5271;44.422;26.092;2023-04-03T14:46:31;11.40;98.10
10447;DHT22;5271;44.422;26.092;2023-04-03T14:48:58;11.40;98.00
10447;DHT22;5271;44.422;26.092;2023-04-03T14:51:25;11.40;98.10
10447;DHT22;5271;44.422;26.092;2023-04-03T14:53:53;11.40;98.20
10447;DHT22;5271;44.422;26.092;2023-04-03T14:56:23;11.40;97.60
10447;DHT22;5271;44.422;26.092;2023-04-03T14:58:56;11.50;97.20
10447;DHT22;5271;44.422;26.092;2023-04-03T15:01:23;11.50;97.30
10447;DHT22;5271;44.422;26.092;2023-04-03T15:03:50;11.40;97.10
10447;DHT22;5271;44.422;26.092;2023-04-03T15:06:17;11.40;97.40
10447;DHT22;5271;44.422;26.092;2023-04-03T15:08:45;11.40;97.70
10447;DHT22;5271;44.422;26.092;2023-04-03T15:11:13;11.40;97.90
10447;DHT22;5271;44.422;26.092;2023-04-03T15:13:40;11.40;98.00
10447;DHT22;5271;44.422;26.092;2023-04-03T15:16:14;11.40;97.80
10447;DHT22;5271;44.422;26.092;2023-04-03T15:18:42;11.50;97.80
10447;DHT22;5271;44.422;26.092;2023-04-03T15:21:08;11.40;97.70
10447;DHT22;5271;44.422;26.092;2023-04-03T15:23:35;11.40;97.70
10447;DHT22;5271;44.422;26.092;2023-04-03T15:26:03;11.30;97.70
10447;DHT22;5271;44.422;26.092;2023-04-03T15:28:33;11.30;97.80
10447;DHT22;5271;44.422;26.092;2023-04-03T15:31:02;11.20;97.70
10447;DHT22;5271;44.422;26.092;2023-04-03T15:33:31;11.10;97.90
10447;DHT22;5271;44.422;26.092;2023-04-03T15:35:58;11.10;97.90
10447;DHT22;5271;44.422;26.092;2023-04-03T15:38:25;11.10;97.80
10447;DHT22;5271;44.422;26.092;2023-04-03T15:40:53;11.10;97.90
10447;DHT22;5271;44.422;26.092;2023-04-03T15:43:20;11.00;97.90
10447;DHT22;5271;44.422;26.092;2023-04-03T15:45:47;11.10;97.60
10447;DHT22;5271;44.422;26.092;2023-04-03T15:48:14;11.10;97.10
10447;DHT22;5271;44.422;26.092;2023-04-03T15:53:18;11.10;96.50
10447;DHT22;5271;44.422;26.092;2023-04-03T15:55:45;11.10;96.20
10447;DHT22;5271;44.422;26.092;2023-04-03T15:58:12;11.00;96.20
10447;DHT22;5271;44.422;26.092;2023-04-03T16:00:39;11.00;96.30
10447;DHT22;5271;44.422;26.092;2023-04-03T16:03:09;11.10;96.50
10447;DHT22;5271;44.422;26.092;2023-04-03T16:08:12;11.20;95.30
10447;DHT22;5271;44.422;26.092;2023-04-03T16:10:41;11.20;95.30
10447;DHT22;5271;44.422;26.092;2023-04-03T16:13:07;11.20;95.40
10447;DHT22;5271;44.422;26.092;2023-04-03T16:15:35;11.20;95.40